createdAt,value
2023-12-20T00:00:39.533Z,3.10
2023-12-20T00:03:07.224Z,3.97
2023-12-20T00:05:35.937Z,4.38
2023-12-20T00:08:03.606Z,4.97
2023-12-20T00:10:31.221Z,5.43
2023-12-20T00:13:00.156Z,5.45
2023-12-20T00:15:27.799Z,6.22
2023-12-20T00:17:55.408Z,4.88
2023-12-20T00:20:23.092Z,3.58
2023-12-20T00:22:50.673Z,2.65
2023-12-20T00:25:18.914Z,4.90
2023-12-20T00:27:46.903Z,5.25
2023-12-20T00:30:16.138Z,2.78
2023-12-20T00:32:47.341Z,2.80
2023-12-20T00:35:15.153Z,4.05
2023-12-20T00:37:42.874Z,5.15
2023-12-20T00:40:11.532Z,5.47
2023-12-20T00:42:39.337Z,4.10
2023-12-20T00:45:07.926Z,3.72
2023-12-20T00:47:36.843Z,4.13
2023-12-20T00:50:04.856Z,4.10
2023-12-20T00:52:32.500Z,3.30
2023-12-20T00:55:00.190Z,4.07
2023-12-20T00:57:27.915Z,4.78
2023-12-20T00:59:55.512Z,5.63
2023-12-20T01:02:23.091Z,3.83
2023-12-20T01:04:52.060Z,4.22
2023-12-20T01:07:19.843Z,4.47
2023-12-20T01:09:47.634Z,4.80
2023-12-20T01:12:15.222Z,5.68
2023-12-20T01:14:43.384Z,4.45
2023-12-20T01:17:10.983Z,5.30
2023-12-20T01:19:38.660Z,5.07
2023-12-20T01:22:07.768Z,3.85
2023-12-20T01:24:35.321Z,5.50
2023-12-20T01:27:03.323Z,5.32
2023-12-20T01:29:30.919Z,5.72
2023-12-20T01:31:58.492Z,6.05
2023-12-20T01:34:26.227Z,3.65
2023-12-20T01:36:53.804Z,4.47
2023-12-20T01:39:28.068Z,7.47
2023-12-20T01:41:57.604Z,3.85
2023-12-20T01:44:25.677Z,5.30
2023-12-20T01:46:53.517Z,4.53
2023-12-20T01:49:21.787Z,4.80
2023-12-20T01:51:50.142Z,5.32
2023-12-20T01:54:18.427Z,3.75
2023-12-20T01:56:47.708Z,4.47
2023-12-20T01:59:15.529Z,2.75
2023-12-20T02:01:43.293Z,5.03
2023-12-20T02:04:11.130Z,3.85
2023-12-20T02:06:42.146Z,6.10
2023-12-20T02:09:10.254Z,4.43
2023-12-20T02:11:38.206Z,5.70
2023-12-20T02:14:07.131Z,6.65
2023-12-20T02:16:34.706Z,4.20
2023-12-20T02:19:02.339Z,6.53
2023-12-20T02:21:35.985Z,3.20
2023-12-20T02:24:03.528Z,5.70
2023-12-20T02:26:31.433Z,6.15
2023-12-20T02:28:59.092Z,2.90
2023-12-20T02:31:26.693Z,5.18
2023-12-20T02:33:54.335Z,5.40
2023-12-20T02:36:21.912Z,4.72
2023-12-20T02:38:51.824Z,5.53
2023-12-20T02:41:19.426Z,3.97
2023-12-20T02:43:47.502Z,4.32
2023-12-20T02:46:18.993Z,4.65
2023-12-20T02:48:48.245Z,4.93
2023-12-20T02:51:15.918Z,5.53
2023-12-20T02:53:43.454Z,6.07
2023-12-20T02:56:12.528Z,6.20
2023-12-20T02:58:40.092Z,4.75
2023-12-20T03:01:07.818Z,4.78
2023-12-20T03:03:35.706Z,4.20
2023-12-20T03:06:03.334Z,2.97
2023-12-20T03:08:32.117Z,3.35
2023-12-20T03:11:01.190Z,5.43
2023-12-20T03:13:30.142Z,2.72
2023-12-20T03:15:57.748Z,3.65
2023-12-20T03:18:25.283Z,5.68
2023-12-20T03:20:53.712Z,4.38
2023-12-20T03:23:21.294Z,3.88
2023-12-20T03:25:48.890Z,4.70
2023-12-20T03:28:16.827Z,5.65
2023-12-20T03:30:45.989Z,5.80
2023-12-20T03:33:13.558Z,5.05
2023-12-20T03:35:41.093Z,4.35
2023-12-20T03:38:08.716Z,3.63
2023-12-20T03:40:36.249Z,4.50
2023-12-20T03:43:03.838Z,5.07
2023-12-20T03:45:31.448Z,4.68
2023-12-20T03:48:00.483Z,4.65
2023-12-20T03:50:28.906Z,2.95
2023-12-20T03:52:56.510Z,3.55
2023-12-20T03:55:24.206Z,4.50
2023-12-20T03:57:51.886Z,7.05
2023-12-20T04:00:19.891Z,5.25
2023-12-20T04:02:47.592Z,4.85
2023-12-20T04:05:16.678Z,4.38
2023-12-20T04:07:45.180Z,3.53
2023-12-20T04:10:13.092Z,9.07
2023-12-20T04:12:41.378Z,13.52
2023-12-20T04:15:11.441Z,6.47
2023-12-20T04:17:39.148Z,4.80
2023-12-20T04:20:08.132Z,7.35
2023-12-20T04:22:37.243Z,6.25
2023-12-20T04:25:05.100Z,6.63
2023-12-20T04:27:32.695Z,4.82
2023-12-20T04:30:00.279Z,4.88
2023-12-20T04:32:27.849Z,4.15
2023-12-20T04:34:55.493Z,5.15
2023-12-20T04:37:23.191Z,4.50
2023-12-20T04:39:52.206Z,4.15
2023-12-20T04:42:19.764Z,3.65
2023-12-20T04:44:47.302Z,4.75
2023-12-20T04:47:14.838Z,4.93
2023-12-20T04:49:42.414Z,16.73
2023-12-20T04:52:10.080Z,4.30
2023-12-20T04:54:37.901Z,9.00
2023-12-20T04:57:06.873Z,10.60
2023-12-20T04:59:34.464Z,5.00
2023-12-20T05:02:02.058Z,5.03
2023-12-20T05:04:29.731Z,4.57
2023-12-20T05:06:57.382Z,16.27
2023-12-20T05:09:24.957Z,7.15
2023-12-20T05:11:52.502Z,4.55
2023-12-20T05:14:21.394Z,6.07
2023-12-20T05:16:48.927Z,5.70
2023-12-20T05:19:16.482Z,6.45
2023-12-20T05:21:44.051Z,3.50
2023-12-20T05:24:11.625Z,5.22
2023-12-20T05:26:39.155Z,5.20
2023-12-20T05:29:06.688Z,4.40
2023-12-20T05:31:35.628Z,5.18
2023-12-20T05:34:03.417Z,4.05
2023-12-20T05:36:31.049Z,4.38
2023-12-20T05:38:58.639Z,7.25
2023-12-20T05:41:26.200Z,5.85
2023-12-20T05:43:53.787Z,4.97
2023-12-20T05:46:22.289Z,5.45
2023-12-20T05:48:52.644Z,4.68
2023-12-20T05:51:20.525Z,5.15
2023-12-20T05:53:48.120Z,6.35
2023-12-20T05:56:15.659Z,3.05
2023-12-20T05:58:43.327Z,4.45
2023-12-20T06:01:11.231Z,4.90
2023-12-20T06:03:38.908Z,4.05
2023-12-20T06:06:15.845Z,4.18
2023-12-20T06:08:45.443Z,2.80
2023-12-20T06:11:14.552Z,3.72
2023-12-20T06:13:42.135Z,3.38
2023-12-20T06:16:09.843Z,4.93
2023-12-20T06:18:38.720Z,4.43
2023-12-20T06:21:09.029Z,5.30
2023-12-20T06:23:36.667Z,4.57
2023-12-20T06:26:04.391Z,4.85
2023-12-20T06:28:32.081Z,5.88
2023-12-20T06:31:00.144Z,4.63
2023-12-20T06:33:27.797Z,5.50
2023-12-20T06:35:55.346Z,6.28
2023-12-20T06:38:24.260Z,4.90
2023-12-20T06:40:51.797Z,6.07
2023-12-20T06:43:32.006Z,3.63
2023-12-20T06:46:06.867Z,6.57
2023-12-20T06:48:34.484Z,6.35
2023-12-20T06:51:03.087Z,4.13
2023-12-20T06:53:31.971Z,4.90
2023-12-20T06:55:59.548Z,4.75
2023-12-20T06:58:27.259Z,5.88
2023-12-20T07:00:55.068Z,4.95
2023-12-20T07:03:22.826Z,5.10
2023-12-20T07:05:50.425Z,5.47
2023-12-20T07:08:18.007Z,3.58
2023-12-20T07:10:46.918Z,2.80
2023-12-20T07:13:15.150Z,2.60
2023-12-20T07:15:44.840Z,8.43
2023-12-20T07:18:12.647Z,4.05
2023-12-20T07:20:40.354Z,4.43
2023-12-20T07:23:07.943Z,4.05
2023-12-20T07:25:35.748Z,7.72
2023-12-20T07:28:05.059Z,4.80
2023-12-20T07:30:32.678Z,3.53
2023-12-20T07:33:00.374Z,3.67
2023-12-20T07:35:28.119Z,4.03
2023-12-20T07:37:55.736Z,4.50
2023-12-20T07:40:24.930Z,3.38
2023-12-20T07:42:52.625Z,4.57
2023-12-20T07:45:21.516Z,5.03
2023-12-20T07:47:50.133Z,4.55
2023-12-20T07:50:18.161Z,3.00
2023-12-20T07:52:45.841Z,2.83
2023-12-20T07:55:13.531Z,5.38
2023-12-20T07:57:41.198Z,3.97
2023-12-20T08:00:09.775Z,3.03
2023-12-20T08:02:39.217Z,4.72
2023-12-20T08:05:07.067Z,3.92
2023-12-20T08:07:34.798Z,5.03
2023-12-20T08:10:02.505Z,4.95
2023-12-20T08:12:30.114Z,2.85
2023-12-20T08:14:58.167Z,4.53
2023-12-20T08:17:25.844Z,3.55
2023-12-20T08:19:54.804Z,4.45
2023-12-20T08:22:22.536Z,2.78
2023-12-20T08:24:50.151Z,2.50
2023-12-20T08:27:17.680Z,3.75
2023-12-20T08:29:45.996Z,4.25
2023-12-20T08:32:13.718Z,3.10
2023-12-20T08:34:41.343Z,4.80
2023-12-20T08:37:10.318Z,4.88
2023-12-20T08:39:37.894Z,4.15
2023-12-20T08:42:06.050Z,4.03
2023-12-20T08:44:33.604Z,2.45
2023-12-20T08:47:01.155Z,4.93
2023-12-20T08:49:29.225Z,4.07
2023-12-20T08:51:56.942Z,5.50
2023-12-20T08:54:25.846Z,5.15
2023-12-20T08:56:53.366Z,3.85
2023-12-20T08:59:20.966Z,4.70
2023-12-20T09:01:49.564Z,7.60
2023-12-20T09:04:17.345Z,6.70
2023-12-20T09:06:45.201Z,5.70
2023-12-20T09:09:14.778Z,5.18
2023-12-20T09:11:44.166Z,3.92
2023-12-20T09:14:11.721Z,3.85
2023-12-20T09:16:39.324Z,3.72
2023-12-20T09:19:07.319Z,4.82
2023-12-20T09:21:34.920Z,5.07
2023-12-20T09:24:02.524Z,3.13
2023-12-20T09:26:30.069Z,2.58
2023-12-20T09:28:58.977Z,7.22
2023-12-20T09:31:26.739Z,5.97
2023-12-20T09:33:54.525Z,5.45
2023-12-20T09:36:22.277Z,2.65
2023-12-20T09:38:49.845Z,2.85
2023-12-20T09:41:17.617Z,4.13
2023-12-20T09:43:45.260Z,3.78
2023-12-20T09:46:18.786Z,5.13
2023-12-20T09:48:46.990Z,3.50
2023-12-20T09:51:15.009Z,3.47
2023-12-20T09:53:44.484Z,3.83
2023-12-20T09:56:12.456Z,3.55
2023-12-20T09:58:40.365Z,3.88
2023-12-20T10:01:08.980Z,3.90
2023-12-20T10:03:41.478Z,3.63
2023-12-20T10:06:09.484Z,7.40
2023-12-20T10:08:37.128Z,1.98
2023-12-20T10:11:05.320Z,3.15
2023-12-20T10:13:33.021Z,3.72
2023-12-20T10:16:01.879Z,4.03
2023-12-20T10:18:38.107Z,4.80
2023-12-20T10:21:10.980Z,5.28
2023-12-20T10:23:40.173Z,3.28
2023-12-20T10:26:07.821Z,3.33
2023-12-20T10:28:36.541Z,3.42
2023-12-20T10:31:04.324Z,3.60
2023-12-20T10:33:34.304Z,3.13
2023-12-20T10:36:01.977Z,4.45
2023-12-20T10:38:31.511Z,0.80
2023-12-20T10:41:00.654Z,2.63
2023-12-20T10:43:31.622Z,3.95
2023-12-20T10:45:59.635Z,3.72
2023-12-20T10:48:30.734Z,0.55
2023-12-20T10:50:59.774Z,2.05
2023-12-20T10:53:27.805Z,2.45
2023-12-20T10:56:02.259Z,1.67
2023-12-20T10:58:31.925Z,2.50
2023-12-20T11:01:03.938Z,2.45
2023-12-20T11:03:34.905Z,1.08
2023-12-20T11:06:07.563Z,1.83
2023-12-20T11:08:40.998Z,2.33
2023-12-20T11:11:18.398Z,2.65
2023-12-20T11:13:56.116Z,0.68
2023-12-20T11:16:24.631Z,1.35
2023-12-20T11:18:53.986Z,1.52
2023-12-20T11:21:22.610Z,2.10
2023-12-20T11:23:50.457Z,1.13
2023-12-20T11:26:28.556Z,0.68
2023-12-20T11:31:23.646Z,1.13
2023-12-20T11:33:52.727Z,2.55
2023-12-20T11:36:22.214Z,0.65
2023-12-20T11:38:58.832Z,2.28
2023-12-20T11:41:28.387Z,0.65
2023-12-20T11:43:56.368Z,1.25
2023-12-20T11:46:24.619Z,0.55
2023-12-20T11:48:52.956Z,0.45
2023-12-20T11:51:20.768Z,0.85
2023-12-20T11:53:53.831Z,0.70
2023-12-20T11:56:21.623Z,0.47
2023-12-20T11:58:51.607Z,0.75
2023-12-20T12:01:22.122Z,0.60
2023-12-20T12:03:49.934Z,0.65
2023-12-20T12:06:17.799Z,0.65
2023-12-20T12:08:45.381Z,0.22
2023-12-20T12:11:13.093Z,0.68
2023-12-20T12:13:40.862Z,0.45
2023-12-20T12:16:10.613Z,0.55
2023-12-20T12:18:38.250Z,1.10
2023-12-20T12:21:10.622Z,0.45
2023-12-20T12:23:43.287Z,0.55
2023-12-20T12:26:11.135Z,0.63
2023-12-20T12:28:42.375Z,0.80
2023-12-20T12:31:15.656Z,0.30
2023-12-20T12:33:44.808Z,0.50
2023-12-20T12:36:13.412Z,0.70
2023-12-20T12:38:40.965Z,0.40
2023-12-20T12:41:08.559Z,1.42
2023-12-20T12:43:37.119Z,0.82
2023-12-20T12:46:05.032Z,0.40
2023-12-20T12:48:34.995Z,0.55
2023-12-20T12:51:02.585Z,0.95
2023-12-20T12:53:30.136Z,1.25
2023-12-20T12:55:57.908Z,0.28
2023-12-20T12:58:26.471Z,0.63
2023-12-20T13:00:54.973Z,0.70
2023-12-20T13:03:22.594Z,0.50
2023-12-20T13:05:51.594Z,0.52
2023-12-20T13:08:19.186Z,0.47
2023-12-20T13:10:46.728Z,1.13
2023-12-20T13:13:14.286Z,0.88
2023-12-20T13:15:42.188Z,0.85
2023-12-20T13:18:09.956Z,1.52
2023-12-20T13:20:37.548Z,0.47
2023-12-20T13:23:06.631Z,1.67
2023-12-20T13:25:34.566Z,1.13
2023-12-20T13:28:02.196Z,1.25
2023-12-20T13:30:29.827Z,0.47
2023-12-20T13:32:57.537Z,0.50
2023-12-20T13:35:25.207Z,0.52
2023-12-20T13:37:52.933Z,0.32
2023-12-20T13:40:22.189Z,0.63
2023-12-20T13:42:49.879Z,1.48
2023-12-20T13:45:17.742Z,1.02
2023-12-20T13:47:45.623Z,0.43
2023-12-20T13:50:13.714Z,1.13
2023-12-20T13:52:41.474Z,1.73
2023-12-20T13:55:09.939Z,1.08
2023-12-20T13:57:51.774Z,0.63
2023-12-20T14:00:22.937Z,0.65
2023-12-20T14:02:50.926Z,0.98
2023-12-20T14:05:19.706Z,0.88
2023-12-20T14:07:47.935Z,1.42
2023-12-20T14:10:16.108Z,1.50
2023-12-20T14:12:45.989Z,0.50
2023-12-20T14:15:14.274Z,1.08
2023-12-20T14:17:43.208Z,2.03
2023-12-20T14:20:13.562Z,2.05
2023-12-20T14:22:44.905Z,1.98
2023-12-20T14:25:13.211Z,1.35
2023-12-20T14:27:41.516Z,1.05
2023-12-20T14:30:11.665Z,1.80
2023-12-20T14:32:40.009Z,0.60
2023-12-20T14:35:09.457Z,0.50
2023-12-20T14:37:39.939Z,1.00
2023-12-20T14:40:11.920Z,0.25
2023-12-20T14:45:08.290Z,0.55
2023-12-20T14:47:37.837Z,2.10
2023-12-20T14:50:06.111Z,2.47
2023-12-20T14:52:35.015Z,1.02
2023-12-20T14:55:03.682Z,0.55
2023-12-20T14:57:31.429Z,1.00
2023-12-20T14:59:59.206Z,1.42
2023-12-20T15:02:26.846Z,0.47
2023-12-20T15:04:55.711Z,0.63
2023-12-20T15:07:23.340Z,1.15
2023-12-20T15:09:50.971Z,1.67
2023-12-20T15:12:18.521Z,0.95
2023-12-20T15:14:46.129Z,2.03
2023-12-20T15:17:13.730Z,1.17
2023-12-20T15:19:41.620Z,0.50
2023-12-20T15:22:10.737Z,0.50
2023-12-20T15:24:39.562Z,3.90
2023-12-20T15:27:07.701Z,0.55
2023-12-20T15:29:35.902Z,0.60
2023-12-20T15:32:04.755Z,0.20
2023-12-20T15:34:32.760Z,1.85
2023-12-20T15:37:00.599Z,1.85
2023-12-20T15:39:29.552Z,0.40
2023-12-20T15:41:57.128Z,1.13
2023-12-20T15:44:24.650Z,0.22
2023-12-20T15:46:53.616Z,0.32
2023-12-20T15:49:21.297Z,2.30
2023-12-20T15:51:48.910Z,1.70
2023-12-20T15:54:16.639Z,0.70
2023-12-20T15:56:47.398Z,2.65
2023-12-20T15:59:14.988Z,0.47
2023-12-20T16:01:42.623Z,0.50
2023-12-20T16:04:21.467Z,0.32
2023-12-20T16:06:49.307Z,0.57
2023-12-20T16:09:16.975Z,0.60
2023-12-20T16:11:45.901Z,1.35
2023-12-20T16:14:18.454Z,0.10
2023-12-20T16:16:46.389Z,1.10
2023-12-20T16:19:14.130Z,1.13
2023-12-20T16:21:41.848Z,1.50
2023-12-20T16:24:09.884Z,0.60
2023-12-20T16:26:37.585Z,2.58
2023-12-20T16:29:06.504Z,0.10
2023-12-20T16:31:34.284Z,0.52
2023-12-20T16:34:05.802Z,0.30
2023-12-20T16:36:50.810Z,0.85
2023-12-20T16:39:20.352Z,2.00
2023-12-20T16:41:49.462Z,0.05
2023-12-20T16:44:18.479Z,3.72
2023-12-20T16:46:46.146Z,1.88
2023-12-20T16:49:13.988Z,1.65
2023-12-20T16:51:41.605Z,3.47
2023-12-20T16:54:09.186Z,1.02
2023-12-20T16:56:36.828Z,0.93
2023-12-20T16:59:05.284Z,1.05
2023-12-20T17:01:34.284Z,3.53
2023-12-20T17:04:02.468Z,2.85
2023-12-20T17:06:30.375Z,11.13
2023-12-20T17:08:57.915Z,1.80
2023-12-20T17:11:25.436Z,0.80
2023-12-20T17:13:53.531Z,1.15
2023-12-20T17:16:21.470Z,1.45
2023-12-20T17:18:50.830Z,4.20
2023-12-20T17:21:18.938Z,3.28
2023-12-20T17:23:47.084Z,3.08
2023-12-20T17:26:15.066Z,2.00
2023-12-20T17:28:42.850Z,1.90
2023-12-20T17:31:10.716Z,3.33
2023-12-20T17:33:38.437Z,1.10
2023-12-20T17:36:08.421Z,2.00
2023-12-20T17:38:38.739Z,2.05
2023-12-20T17:41:06.490Z,0.90
2023-12-20T17:43:34.063Z,1.73
2023-12-20T17:46:01.744Z,0.90
2023-12-20T17:48:29.439Z,2.45
2023-12-20T17:50:57.030Z,3.25
2023-12-20T17:53:25.908Z,0.82
2023-12-20T17:55:53.522Z,2.40
2023-12-20T17:58:21.900Z,1.63
2023-12-20T18:00:50.023Z,1.30
2023-12-20T18:03:17.643Z,0.82
2023-12-20T18:05:45.250Z,3.55
2023-12-20T18:08:12.874Z,1.02
2023-12-20T18:10:42.442Z,2.40
2023-12-20T18:13:10.370Z,0.50
2023-12-20T18:15:38.049Z,1.88
2023-12-20T18:18:05.997Z,9.23
2023-12-20T18:20:33.731Z,3.28
2023-12-20T18:23:01.418Z,2.78
2023-12-20T18:25:30.462Z,0.60
2023-12-20T18:27:59.472Z,1.35
2023-12-20T18:30:27.062Z,0.93
2023-12-20T18:32:54.700Z,0.98
2023-12-20T18:35:22.335Z,0.93
2023-12-20T18:37:50.127Z,3.15
2023-12-20T18:40:17.748Z,6.85
2023-12-20T18:42:45.420Z,1.35
2023-12-20T18:45:14.420Z,1.90
2023-12-20T18:47:42.378Z,1.27
2023-12-20T18:50:10.478Z,0.60
2023-12-20T18:52:38.126Z,2.10
2023-12-20T18:55:06.692Z,3.05
2023-12-20T18:57:34.226Z,0.52
2023-12-20T19:00:04.422Z,0.70
2023-12-20T19:02:35.684Z,1.27
2023-12-20T19:05:03.871Z,1.05
2023-12-20T19:07:31.631Z,2.35
2023-12-20T19:09:59.270Z,2.42
2023-12-20T19:12:26.868Z,1.00
2023-12-20T19:14:54.480Z,0.77
2023-12-20T19:17:22.327Z,2.80
2023-12-20T19:19:51.328Z,10.90
2023-12-20T19:22:19.052Z,3.03
2023-12-20T19:24:46.746Z,3.75
2023-12-20T19:27:14.376Z,0.38
2023-12-20T19:29:41.953Z,0.90
2023-12-20T19:32:09.512Z,1.27
2023-12-20T19:34:37.182Z,4.15
2023-12-20T19:37:06.274Z,1.90
2023-12-20T19:39:33.832Z,1.23
2023-12-20T19:42:01.384Z,2.80
2023-12-20T19:44:28.947Z,2.40
2023-12-20T19:46:56.459Z,1.00
2023-12-20T19:49:24.032Z,4.53
2023-12-20T19:51:51.672Z,5.82
2023-12-20T19:54:20.583Z,6.30
2023-12-20T19:56:48.174Z,1.60
2023-12-20T19:59:15.802Z,0.60
2023-12-20T20:01:44.470Z,1.67
2023-12-20T20:04:13.227Z,1.05
2023-12-20T20:06:42.061Z,0.85
2023-12-20T20:09:09.592Z,0.70
2023-12-20T20:11:38.468Z,3.65
2023-12-20T20:14:05.036Z,7.53
2023-12-20T20:16:32.703Z,4.18
2023-12-20T20:19:00.379Z,3.75
2023-12-20T20:21:28.162Z,3.40
2023-12-20T20:23:55.807Z,0.52
2023-12-20T20:26:23.432Z,0.75
2023-12-20T20:28:52.325Z,0.85
2023-12-20T20:31:19.896Z,5.35
2023-12-20T20:33:47.494Z,1.92
2023-12-20T20:36:15.120Z,1.02
2023-12-20T20:38:42.668Z,1.30
2023-12-20T20:41:10.224Z,1.17
2023-12-20T20:43:37.968Z,0.77
2023-12-20T20:46:07.219Z,0.93
2023-12-20T20:48:43.900Z,0.98
2023-12-20T20:51:15.662Z,1.73
2023-12-20T20:53:43.228Z,2.03
2023-12-20T20:56:10.927Z,0.40
2023-12-20T20:58:38.645Z,1.13
2023-12-20T21:01:08.324Z,1.73
2023-12-20T21:03:36.419Z,0.82
2023-12-20T21:06:04.315Z,0.82
2023-12-20T21:08:32.490Z,1.45
2023-12-20T21:11:00.635Z,0.93
2023-12-20T21:13:29.800Z,2.38
2023-12-20T21:15:57.680Z,0.60
2023-12-20T21:18:28.551Z,0.95
2023-12-20T21:20:56.439Z,0.95
2023-12-20T21:23:24.103Z,1.52
2023-12-20T21:25:52.113Z,1.83
2023-12-20T21:28:21.220Z,1.48
2023-12-20T21:30:50.363Z,0.50
2023-12-20T21:33:18.211Z,0.75
2023-12-20T21:35:47.208Z,0.95
2023-12-20T21:38:14.781Z,0.95
2023-12-20T21:40:42.396Z,1.15
2023-12-20T21:43:10.081Z,0.50
2023-12-20T21:45:38.452Z,1.33
2023-12-20T21:48:06.739Z,1.30
2023-12-20T21:50:34.485Z,0.43
2023-12-20T21:53:03.484Z,1.63
2023-12-20T21:55:32.571Z,1.10
2023-12-20T21:58:00.309Z,0.40
2023-12-20T22:00:27.969Z,0.70
2023-12-20T22:02:55.564Z,3.78
2023-12-20T22:05:23.390Z,1.88
2023-12-20T22:07:52.475Z,3.90
2023-12-20T22:10:21.459Z,0.80
2023-12-20T22:12:49.097Z,2.25
2023-12-20T22:15:16.656Z,1.50
2023-12-20T22:17:44.433Z,1.77
2023-12-20T22:20:13.029Z,0.80
2023-12-20T22:22:41.338Z,0.35
2023-12-20T22:25:09.379Z,0.40
2023-12-20T22:27:38.377Z,0.30
2023-12-20T22:30:07.191Z,0.57
2023-12-20T22:32:34.844Z,0.80
2023-12-20T22:35:02.486Z,0.43
2023-12-20T22:37:30.125Z,1.58
2023-12-20T22:39:57.790Z,0.68
2023-12-20T22:42:25.467Z,1.90
2023-12-20T22:44:55.932Z,0.40
2023-12-20T22:47:24.639Z,0.63
2023-12-20T22:49:53.797Z,0.50
2023-12-20T22:52:21.968Z,1.17
2023-12-20T22:54:49.969Z,1.77
2023-12-20T22:57:17.559Z,0.25
2023-12-20T22:59:45.328Z,0.90
2023-12-20T23:02:14.805Z,1.63
2023-12-20T23:04:43.368Z,0.55
2023-12-20T23:07:11.576Z,0.60
2023-12-20T23:09:40.128Z,0.98
2023-12-20T23:12:08.317Z,0.57
2023-12-20T23:14:35.842Z,0.82
2023-12-20T23:17:04.045Z,1.17
2023-12-20T23:19:34.473Z,1.10
2023-12-20T23:22:02.368Z,0.30
2023-12-20T23:24:29.965Z,0.95
2023-12-20T23:26:57.501Z,2.05
2023-12-20T23:29:25.070Z,0.40
2023-12-20T23:31:52.739Z,0.65
2023-12-20T23:34:20.424Z,0.52
2023-12-20T23:36:49.352Z,0.43
2023-12-20T23:39:17.396Z,1.00
2023-12-20T23:41:45.130Z,0.63
2023-12-20T23:44:12.749Z,0.20
2023-12-20T23:46:39.493Z,2.05
2023-12-20T23:49:07.288Z,0.22
2023-12-20T23:51:34.911Z,0.40
2023-12-20T23:54:03.967Z,0.73
2023-12-20T23:56:38.166Z,1.95
2023-12-20T23:59:06.818Z,0.85
